createdAt,value
2023-05-13T00:04:20.212Z,101771.16
2023-05-13T00:09:18.591Z,101758.75
2023-05-13T00:14:22.624Z,101806.28
2023-05-13T00:19:39.052Z,101749.75
2023-05-13T00:24:39.417Z,101791.41
2023-05-13T00:30:00.907Z,101817.81
2023-05-13T00:35:05.081Z,101745.16
2023-05-13T00:40:11.855Z,101812.81
2023-05-13T00:45:12.874Z,101802.81
2023-05-13T00:50:16.906Z,101762.16
2023-05-13T00:55:22.355Z,101778.78
2023-05-13T01:00:23.770Z,101792.28
2023-05-13T01:05:33.179Z,101820.97
2023-05-13T01:10:38.757Z,101761.13
2023-05-13T01:15:41.761Z,101727.50
2023-05-13T01:20:48.443Z,101755.38
2023-05-13T01:25:53.274Z,101754.97
2023-05-13T01:30:58.658Z,101826.69
2023-05-13T01:36:02.969Z,101835.66
2023-05-13T01:41:03.241Z,101827.56
2023-05-13T01:46:05.976Z,101827.97
2023-05-13T01:51:07.878Z,101769.47
2023-05-13T01:56:09.722Z,101775.28
2023-05-13T02:01:12.821Z,101798.44
2023-05-13T02:06:13.042Z,101770.59
2023-05-13T02:11:11.655Z,101817.25
2023-05-13T02:16:14.707Z,101797.06
2023-05-13T02:21:12.121Z,101828.09
2023-05-13T02:26:26.515Z,101773.44
2023-05-13T02:31:32.672Z,101773.81
2023-05-13T02:36:42.435Z,101801.34
2023-05-13T02:41:58.536Z,101763.44
2023-05-13T02:47:03.706Z,101757.44
2023-05-13T02:52:10.693Z,101797.56
2023-05-13T02:57:16.682Z,101829.28
2023-05-13T03:02:32.385Z,101782.78
2023-05-13T03:07:46.223Z,101818.88
2023-05-13T03:12:52.830Z,101771.63
2023-05-13T03:18:02.530Z,101786.50
2023-05-13T03:23:05.650Z,101762.13
2023-05-13T03:28:19.636Z,101798.84
2023-05-13T03:33:26.745Z,101847.53
2023-05-13T03:38:36.618Z,101822.31
2023-05-13T03:43:45.830Z,101840.78
2023-05-13T03:48:46.679Z,101858.47
2023-05-13T03:53:52.982Z,101814.84
2023-05-13T03:58:58.021Z,101825.97
2023-05-13T04:04:10.780Z,101856.53
2023-05-13T04:09:14.402Z,101825.88
2023-05-13T04:14:21.680Z,101870.38
2023-05-13T04:19:32.596Z,101826.91
2023-05-13T04:29:53.535Z,101897.66
2023-05-13T04:34:55.088Z,101905.19
2023-05-13T04:40:02.300Z,101901.25
2023-05-13T04:45:11.659Z,101900.38
2023-05-13T04:50:32.872Z,101838.91
2023-05-13T04:55:39.617Z,101858.00
2023-05-13T05:00:42.987Z,101864.66
2023-05-13T05:05:48.232Z,101928.66
2023-05-13T05:10:53.801Z,101916.03
2023-05-13T05:16:12.155Z,101869.75
2023-05-13T05:21:33.304Z,101882.25
2023-05-13T05:26:32.021Z,101857.41
2023-05-13T05:31:40.873Z,101936.16
2023-05-13T05:36:52.145Z,101923.75
2023-05-13T05:42:11.371Z,101935.38
2023-05-13T05:47:27.475Z,101927.28
2023-05-13T05:52:28.390Z,101885.13
2023-05-13T05:57:29.181Z,101882.50
2023-05-13T06:02:34.003Z,101960.75
2023-05-13T06:08:04.627Z,101964.00
2023-05-13T06:13:10.773Z,101959.91
2023-05-13T06:18:13.956Z,101951.72
2023-05-13T06:23:49.060Z,101868.63
2023-05-13T06:29:03.716Z,101870.91
2023-05-13T06:34:45.779Z,101855.78
2023-05-13T06:40:14.654Z,101874.66
2023-05-13T06:47:08.238Z,101887.13
2023-05-13T06:59:23.566Z,101872.25
2023-05-13T07:04:43.666Z,101905.09
2023-05-13T07:16:17.943Z,101898.81
2023-05-13T07:21:33.953Z,101930.59
2023-05-13T07:27:30.926Z,101926.63
2023-05-13T07:33:20.886Z,101850.19
2023-05-13T07:38:40.613Z,101898.84
2023-05-13T07:43:55.680Z,101872.34
2023-05-13T07:49:01.299Z,101914.19
2023-05-13T07:54:07.712Z,101889.06
2023-05-13T07:59:07.642Z,101932.78
2023-05-13T08:04:05.542Z,101926.06
2023-05-13T08:09:13.844Z,101883.72
2023-05-13T08:19:49.112Z,101861.81
2023-05-13T08:24:48.205Z,101871.84
2023-05-13T08:29:50.850Z,101882.59
2023-05-13T08:34:57.804Z,101885.78
2023-05-13T08:40:08.783Z,101919.91
2023-05-13T08:45:15.167Z,101933.25
2023-05-13T08:50:23.298Z,101937.81
2023-05-13T09:02:54.460Z,101932.09
2023-05-13T13:45:34.333Z,101739.25
2023-05-13T13:51:52.690Z,101827.78
2023-05-13T14:09:17.743Z,101779.00
2023-05-13T14:15:21.637Z,101782.88
2023-05-13T14:33:37.689Z,101762.97
2023-05-13T14:46:57.679Z,101714.78
2023-05-13T14:53:05.220Z,101730.69
2023-05-13T14:59:16.018Z,101844.31
2023-05-13T15:05:29.361Z,101805.63
2023-05-13T15:10:59.707Z,101826.06
2023-05-13T15:16:25.079Z,101768.34
2023-05-13T15:21:59.140Z,101731.09
2023-05-13T15:27:42.996Z,101834.78
2023-05-13T15:33:27.140Z,101709.25
2023-05-13T15:39:33.574Z,101763.50
2023-05-13T15:45:53.441Z,101745.59
2023-05-13T15:58:08.403Z,101827.66
2023-05-13T16:10:04.797Z,101800.72
2023-05-13T16:15:45.447Z,101827.25
2023-05-13T16:27:41.267Z,101706.19
2023-05-13T16:33:21.784Z,101742.72
2023-05-13T16:38:59.257Z,101741.38
2023-05-13T16:59:01.193Z,101759.69
2023-05-13T17:11:28.854Z,101841.75
2023-05-13T17:30:55.217Z,101749.44
2023-05-13T17:36:17.739Z,101751.66
2023-05-13T17:49:32.594Z,101878.00
2023-05-13T17:54:32.257Z,101859.56
2023-05-13T17:59:31.836Z,101830.81
2023-05-13T18:04:29.373Z,101847.06
2023-05-13T18:09:26.215Z,101832.69
2023-05-13T18:14:23.229Z,101896.06
2023-05-13T18:19:20.082Z,101868.34
2023-05-13T18:24:17.594Z,101853.91
2023-05-13T18:29:14.446Z,101846.97
2023-05-13T18:34:11.181Z,101846.56
2023-05-13T18:39:09.253Z,101894.38
2023-05-13T18:44:07.107Z,101838.66
2023-05-13T18:49:04.134Z,101851.09
2023-05-13T18:54:01.154Z,101849.28
2023-05-13T18:58:58.069Z,101895.13
2023-05-13T19:03:56.573Z,101854.25
2023-05-13T19:08:53.459Z,101861.88
2023-05-13T19:13:50.232Z,101910.97
2023-05-13T19:18:47.230Z,101879.56
2023-05-13T19:23:44.882Z,101908.13
2023-05-13T19:28:43.162Z,101882.63
2023-05-13T19:33:40.441Z,101892.03
2023-05-13T19:38:37.374Z,101899.38
2023-05-13T19:43:35.182Z,101843.03
2023-05-13T19:48:31.981Z,101854.66
2023-05-13T19:53:28.780Z,101868.41
2023-05-13T19:58:25.598Z,101875.47
2023-05-13T20:03:23.110Z,101885.66
2023-05-13T20:08:20.522Z,101891.28
2023-05-13T20:13:17.351Z,101870.09
2023-05-13T20:18:14.105Z,101885.00
2023-05-13T20:23:13.773Z,101875.78
2023-05-13T20:28:11.298Z,101847.41
2023-05-13T20:33:08.217Z,101840.13
2023-05-13T20:38:05.271Z,101850.66
2023-05-13T20:43:02.857Z,101842.19
2023-05-13T20:48:00.545Z,101858.19
2023-05-13T20:52:57.512Z,101868.63
2023-05-13T20:57:54.335Z,101848.00
2023-05-13T21:02:52.470Z,101828.13
2023-05-13T21:07:49.337Z,101819.94
2023-05-13T21:12:47.394Z,101849.13
2023-05-13T21:17:44.283Z,101855.19
2023-05-13T21:22:41.760Z,101871.38
2023-05-13T21:27:38.569Z,101852.56
2023-05-13T21:32:35.489Z,101811.09
2023-05-13T21:37:32.271Z,101788.63
2023-05-13T21:42:30.310Z,101852.69
2023-05-13T21:47:28.890Z,101852.25
2023-05-13T21:52:25.689Z,101858.66
2023-05-13T21:57:22.411Z,101834.94
2023-05-13T22:02:20.006Z,101827.66
2023-05-13T22:07:17.079Z,101843.31
2023-05-13T22:12:13.882Z,101854.38
2023-05-13T22:17:10.929Z,101832.78
2023-05-13T22:22:08.524Z,101783.72
2023-05-13T22:27:05.691Z,101850.94
2023-05-13T22:32:02.875Z,101822.44
2023-05-13T22:37:02.056Z,101842.25
2023-05-13T22:41:59.567Z,101852.19
2023-05-13T22:46:56.419Z,101785.91
2023-05-13T22:51:53.237Z,101834.38
2023-05-13T22:56:49.984Z,101846.84
2023-05-13T23:01:48.175Z,101816.00
2023-05-13T23:06:44.989Z,101862.81
2023-05-13T23:11:41.832Z,101846.28
2023-05-13T23:16:38.821Z,101824.97
2023-05-13T23:21:36.740Z,101872.06
2023-05-13T23:26:33.452Z,101806.59
2023-05-13T23:31:30.250Z,101860.59
2023-05-13T23:36:27.181Z,101868.69
2023-05-13T23:41:24.655Z,101847.66
2023-05-13T23:46:21.488Z,101808.66
2023-05-13T23:51:18.468Z,101859.66
2023-05-13T23:56:15.275Z,101829.25
